sensor_id;sensor_type;location;lat;lon;timestamp;P1;durP1;ratioP1;P2;durP2;ratioP2
40635;SDS011;26642;55.766;37.828;2024-01-30T00:00:12;4.50;;;3.50;;
40635;SDS011;26642;55.766;37.828;2024-01-30T00:02:38;5.53;;;3.92;;
40635;SDS011;26642;55.766;37.828;2024-01-30T00:05:04;4.68;;;3.58;;
40635;SDS011;26642;55.766;37.828;2024-01-30T00:07:30;4.53;;;3.65;;
40635;SDS011;26642;55.766;37.828;2024-01-30T00:09:57;4.63;;;3.65;;
40635;SDS011;26642;55.766;37.828;2024-01-30T00:12:23;4.55;;;3.53;;
40635;SDS011;26642;55.766;37.828;2024-01-30T00:14:49;3.97;;;3.25;;
40635;SDS011;26642;55.766;37.828;2024-01-30T00:17:15;4.30;;;3.58;;
40635;SDS011;26642;55.766;37.828;2024-01-30T00:19:41;4.47;;;3.67;;
40635;SDS011;26642;55.766;37.828;2024-01-30T00:22:07;4.72;;;3.60;;
40635;SDS011;26642;55.766;37.828;2024-01-30T00:24:33;5.03;;;3.65;;
40635;SDS011;26642;55.766;37.828;2024-01-30T00:26:59;4.68;;;3.70;;
40635;SDS011;26642;55.766;37.828;2024-01-30T00:29:25;3.85;;;3.40;;
40635;SDS011;26642;55.766;37.828;2024-01-30T00:31:55;4.75;;;3.78;;
40635;SDS011;26642;55.766;37.828;2024-01-30T00:38:09;5.33;;;3.33;;
40635;SDS011;26642;55.766;37.828;2024-01-30T00:40:35;4.40;;;3.42;;
40635;SDS011;26642;55.766;37.828;2024-01-30T00:43:01;5.93;;;3.58;;
40635;SDS011;26642;55.766;37.828;2024-01-30T00:45:27;4.80;;;3.42;;
40635;SDS011;26642;55.766;37.828;2024-01-30T00:47:53;4.55;;;3.60;;
40635;SDS011;26642;55.766;37.828;2024-01-30T00:50:19;4.15;;;3.22;;
40635;SDS011;26642;55.766;37.828;2024-01-30T00:52:45;4.30;;;2.95;;
40635;SDS011;26642;55.766;37.828;2024-01-30T00:55:11;3.97;;;3.20;;
40635;SDS011;26642;55.766;37.828;2024-01-30T00:57:38;4.53;;;3.25;;
40635;SDS011;26642;55.766;37.828;2024-01-30T01:00:04;3.22;;;2.80;;
40635;SDS011;26642;55.766;37.828;2024-01-30T01:02:33;4.97;;;3.63;;
40635;SDS011;26642;55.766;37.828;2024-01-30T01:05:01;4.47;;;3.30;;
40635;SDS011;26642;55.766;37.828;2024-01-30T01:07:27;4.95;;;3.22;;
40635;SDS011;26642;55.766;37.828;2024-01-30T01:09:53;3.60;;;2.95;;
40635;SDS011;26642;55.766;37.828;2024-01-30T01:12:19;3.08;;;2.75;;
40635;SDS011;26642;55.766;37.828;2024-01-30T01:14:45;3.50;;;3.05;;
40635;SDS011;26642;55.766;37.828;2024-01-30T01:17:11;3.47;;;3.03;;
40635;SDS011;26642;55.766;37.828;2024-01-30T01:19:37;4.00;;;3.60;;
40635;SDS011;26642;55.766;37.828;2024-01-30T01:22:03;3.22;;;2.70;;
40635;SDS011;26642;55.766;37.828;2024-01-30T01:24:32;5.20;;;3.05;;
40635;SDS011;26642;55.766;37.828;2024-01-30T01:26:59;4.15;;;3.17;;
40635;SDS011;26642;55.766;37.828;2024-01-30T01:29:25;3.78;;;2.72;;
40635;SDS011;26642;55.766;37.828;2024-01-30T01:31:54;4.65;;;3.33;;
40635;SDS011;26642;55.766;37.828;2024-01-30T01:34:21;4.03;;;3.47;;
40635;SDS011;26642;55.766;37.828;2024-01-30T01:36:48;3.83;;;3.00;;
40635;SDS011;26642;55.766;37.828;2024-01-30T01:39:15;4.85;;;3.08;;
40635;SDS011;26642;55.766;37.828;2024-01-30T01:41:41;4.35;;;3.35;;
40635;SDS011;26642;55.766;37.828;2024-01-30T01:44:07;3.53;;;3.15;;
40635;SDS011;26642;55.766;37.828;2024-01-30T01:46:34;3.55;;;3.00;;
40635;SDS011;26642;55.766;37.828;2024-01-30T01:49:00;4.18;;;3.30;;
40635;SDS011;26642;55.766;37.828;2024-01-30T01:51:29;6.10;;;3.42;;
40635;SDS011;26642;55.766;37.828;2024-01-30T01:53:57;3.40;;;2.97;;
40635;SDS011;26642;55.766;37.828;2024-01-30T01:56:24;3.45;;;2.90;;
40635;SDS011;26642;55.766;37.828;2024-01-30T01:58:54;3.30;;;3.00;;
40635;SDS011;26642;55.766;37.828;2024-01-30T02:01:21;3.88;;;3.33;;
40635;SDS011;26642;55.766;37.828;2024-01-30T02:03:48;3.85;;;3.25;;
40635;SDS011;26642;55.766;37.828;2024-01-30T02:06:14;4.15;;;3.22;;
40635;SDS011;26642;55.766;37.828;2024-01-30T02:08:41;3.58;;;2.97;;
40635;SDS011;26642;55.766;37.828;2024-01-30T02:11:07;3.67;;;3.10;;
40635;SDS011;26642;55.766;37.828;2024-01-30T02:13:35;4.70;;;3.50;;
40635;SDS011;26642;55.766;37.828;2024-01-30T02:16:02;3.45;;;2.92;;
40635;SDS011;26642;55.766;37.828;2024-01-30T02:18:28;3.17;;;2.88;;
40635;SDS011;26642;55.766;37.828;2024-01-30T02:21:15;3.40;;;2.90;;
40635;SDS011;26642;55.766;37.828;2024-01-30T02:23:42;3.80;;;3.10;;
40635;SDS011;26642;55.766;37.828;2024-01-30T02:26:09;4.57;;;3.28;;
40635;SDS011;26642;55.766;37.828;2024-01-30T02:28:37;4.38;;;2.72;;
40635;SDS011;26642;55.766;37.828;2024-01-30T02:31:03;4.18;;;3.40;;
40635;SDS011;26642;55.766;37.828;2024-01-30T02:33:29;3.83;;;3.40;;
40635;SDS011;26642;55.766;37.828;2024-01-30T02:35:55;4.20;;;3.20;;
40635;SDS011;26642;55.766;37.828;2024-01-30T02:38:22;3.75;;;3.15;;
40635;SDS011;26642;55.766;37.828;2024-01-30T02:40:48;3.42;;;3.13;;
40635;SDS011;26642;55.766;37.828;2024-01-30T02:43:15;3.70;;;3.28;;
40635;SDS011;26642;55.766;37.828;2024-01-30T02:45:41;3.55;;;3.20;;
40635;SDS011;26642;55.766;37.828;2024-01-30T02:48:07;4.55;;;3.20;;
40635;SDS011;26642;55.766;37.828;2024-01-30T02:50:34;3.72;;;3.30;;
40635;SDS011;26642;55.766;37.828;2024-01-30T02:53:00;3.90;;;3.20;;
40635;SDS011;26642;55.766;37.828;2024-01-30T02:55:26;4.38;;;3.33;;
40635;SDS011;26642;55.766;37.828;2024-01-30T02:57:52;5.00;;;3.33;;
40635;SDS011;26642;55.766;37.828;2024-01-30T03:00:19;3.53;;;3.22;;
40635;SDS011;26642;55.766;37.828;2024-01-30T03:02:45;3.97;;;3.20;;
40635;SDS011;26642;55.766;37.828;2024-01-30T03:05:11;4.32;;;3.22;;
40635;SDS011;26642;55.766;37.828;2024-01-30T03:07:37;3.75;;;3.35;;
40635;SDS011;26642;55.766;37.828;2024-01-30T03:10:06;4.32;;;3.47;;
40635;SDS011;26642;55.766;37.828;2024-01-30T03:12:32;3.95;;;3.42;;
40635;SDS011;26642;55.766;37.828;2024-01-30T03:14:58;4.15;;;3.30;;
40635;SDS011;26642;55.766;37.828;2024-01-30T03:17:24;3.20;;;2.90;;
40635;SDS011;26642;55.766;37.828;2024-01-30T03:19:50;4.55;;;3.88;;
40635;SDS011;26642;55.766;37.828;2024-01-30T03:22:17;3.88;;;3.33;;
40635;SDS011;26642;55.766;37.828;2024-01-30T03:24:43;4.72;;;3.28;;
40635;SDS011;26642;55.766;37.828;2024-01-30T03:27:09;3.78;;;3.38;;
40635;SDS011;26642;55.766;37.828;2024-01-30T03:29:35;5.05;;;2.97;;
40635;SDS011;26642;55.766;37.828;2024-01-30T03:32:01;4.05;;;3.28;;
40635;SDS011;26642;55.766;37.828;2024-01-30T03:34:29;3.53;;;3.15;;
40635;SDS011;26642;55.766;37.828;2024-01-30T03:36:55;3.70;;;3.13;;
40635;SDS011;26642;55.766;37.828;2024-01-30T03:39:21;3.58;;;3.03;;
40635;SDS011;26642;55.766;37.828;2024-01-30T03:41:47;3.70;;;3.00;;
40635;SDS011;26642;55.766;37.828;2024-01-30T03:44:13;3.03;;;2.72;;
40635;SDS011;26642;55.766;37.828;2024-01-30T03:46:39;3.08;;;2.75;;
40635;SDS011;26642;55.766;37.828;2024-01-30T03:49:05;3.60;;;3.13;;
40635;SDS011;26642;55.766;37.828;2024-01-30T03:51:31;4.93;;;3.42;;
40635;SDS011;26642;55.766;37.828;2024-01-30T03:53:57;3.35;;;3.05;;
40635;SDS011;26642;55.766;37.828;2024-01-30T03:56:23;3.28;;;2.97;;
40635;SDS011;26642;55.766;37.828;2024-01-30T03:58:51;3.75;;;3.25;;
40635;SDS011;26642;55.766;37.828;2024-01-30T04:01:17;6.40;;;3.38;;
40635;SDS011;26642;55.766;37.828;2024-01-30T04:03:43;3.40;;;3.00;;
40635;SDS011;26642;55.766;37.828;2024-01-30T04:06:09;3.60;;;3.00;;
40635;SDS011;26642;55.766;37.828;2024-01-30T04:08:36;3.58;;;3.25;;
40635;SDS011;26642;55.766;37.828;2024-01-30T04:11:03;3.72;;;3.15;;
40635;SDS011;26642;55.766;37.828;2024-01-30T04:13:31;4.03;;;3.20;;
40635;SDS011;26642;55.766;37.828;2024-01-30T04:16:00;3.13;;;2.80;;
40635;SDS011;26642;55.766;37.828;2024-01-30T04:18:27;4.43;;;3.33;;
40635;SDS011;26642;55.766;37.828;2024-01-30T04:20:54;4.43;;;3.00;;
40635;SDS011;26642;55.766;37.828;2024-01-30T04:23:20;3.88;;;3.30;;
40635;SDS011;26642;55.766;37.828;2024-01-30T04:25:46;3.63;;;3.17;;
40635;SDS011;26642;55.766;37.828;2024-01-30T04:28:12;3.38;;;3.05;;
40635;SDS011;26642;55.766;37.828;2024-01-30T04:30:38;3.50;;;3.20;;
40635;SDS011;26642;55.766;37.828;2024-01-30T04:33:05;5.32;;;3.42;;
40635;SDS011;26642;55.766;37.828;2024-01-30T04:35:31;4.63;;;3.50;;
40635;SDS011;26642;55.766;37.828;2024-01-30T04:37:57;3.92;;;3.35;;
40635;SDS011;26642;55.766;37.828;2024-01-30T04:40:23;4.63;;;3.30;;
40635;SDS011;26642;55.766;37.828;2024-01-30T04:42:49;3.70;;;3.17;;
40635;SDS011;26642;55.766;37.828;2024-01-30T04:45:15;3.90;;;3.50;;
40635;SDS011;26642;55.766;37.828;2024-01-30T04:47:41;4.32;;;3.40;;
40635;SDS011;26642;55.766;37.828;2024-01-30T04:50:07;4.60;;;3.70;;
40635;SDS011;26642;55.766;37.828;2024-01-30T04:52:34;5.18;;;3.67;;
40635;SDS011;26642;55.766;37.828;2024-01-30T04:55:00;4.90;;;3.90;;
40635;SDS011;26642;55.766;37.828;2024-01-30T04:57:26;6.55;;;3.85;;
40635;SDS011;26642;55.766;37.828;2024-01-30T04:59:52;4.15;;;3.75;;
40635;SDS011;26642;55.766;37.828;2024-01-30T05:02:19;5.18;;;3.80;;
40635;SDS011;26642;55.766;37.828;2024-01-30T05:04:45;5.18;;;3.40;;
40635;SDS011;26642;55.766;37.828;2024-01-30T05:07:11;4.45;;;3.70;;
40635;SDS011;26642;55.766;37.828;2024-01-30T05:09:37;4.97;;;3.80;;
40635;SDS011;26642;55.766;37.828;2024-01-30T05:12:03;5.93;;;3.90;;
40635;SDS011;26642;55.766;37.828;2024-01-30T05:14:29;7.20;;;3.85;;
40635;SDS011;26642;55.766;37.828;2024-01-30T05:16:55;5.25;;;3.45;;
40635;SDS011;26642;55.766;37.828;2024-01-30T05:19:21;5.47;;;4.10;;
40635;SDS011;26642;55.766;37.828;2024-01-30T05:21:48;6.85;;;3.97;;
40635;SDS011;26642;55.766;37.828;2024-01-30T05:24:15;6.18;;;4.60;;
40635;SDS011;26642;55.766;37.828;2024-01-30T05:26:41;5.85;;;4.68;;
40635;SDS011;26642;55.766;37.828;2024-01-30T05:29:07;5.85;;;4.50;;
40635;SDS011;26642;55.766;37.828;2024-01-30T05:31:33;5.30;;;4.35;;
40635;SDS011;26642;55.766;37.828;2024-01-30T05:33:59;6.60;;;4.30;;
40635;SDS011;26642;55.766;37.828;2024-01-30T05:36:26;6.68;;;4.60;;
40635;SDS011;26642;55.766;37.828;2024-01-30T05:38:52;6.60;;;4.60;;
40635;SDS011;26642;55.766;37.828;2024-01-30T05:41:19;6.47;;;4.65;;
40635;SDS011;26642;55.766;37.828;2024-01-30T05:43:46;8.00;;;4.80;;
40635;SDS011;26642;55.766;37.828;2024-01-30T05:46:13;7.05;;;4.55;;
40635;SDS011;26642;55.766;37.828;2024-01-30T05:48:39;6.47;;;4.63;;
40635;SDS011;26642;55.766;37.828;2024-01-30T05:51:05;8.07;;;4.82;;
40635;SDS011;26642;55.766;37.828;2024-01-30T05:53:33;7.03;;;4.88;;
40635;SDS011;26642;55.766;37.828;2024-01-30T05:56:03;6.97;;;4.20;;
40635;SDS011;26642;55.766;37.828;2024-01-30T05:58:29;5.90;;;4.53;;
40635;SDS011;26642;55.766;37.828;2024-01-30T06:00:56;7.05;;;5.18;;
40635;SDS011;26642;55.766;37.828;2024-01-30T06:03:23;7.65;;;4.80;;
40635;SDS011;26642;55.766;37.828;2024-01-30T06:05:49;6.78;;;4.47;;
40635;SDS011;26642;55.766;37.828;2024-01-30T06:08:15;7.10;;;5.50;;
40635;SDS011;26642;55.766;37.828;2024-01-30T06:10:41;6.22;;;4.70;;
40635;SDS011;26642;55.766;37.828;2024-01-30T06:13:07;7.35;;;5.00;;
40635;SDS011;26642;55.766;37.828;2024-01-30T06:15:33;7.47;;;5.00;;
40635;SDS011;26642;55.766;37.828;2024-01-30T06:17:59;6.95;;;5.00;;
40635;SDS011;26642;55.766;37.828;2024-01-30T06:20:25;6.82;;;4.88;;
40635;SDS011;26642;55.766;37.828;2024-01-30T06:22:51;6.95;;;4.40;;
40635;SDS011;26642;55.766;37.828;2024-01-30T06:25:17;8.27;;;5.28;;
40635;SDS011;26642;55.766;37.828;2024-01-30T06:27:43;8.68;;;5.63;;
40635;SDS011;26642;55.766;37.828;2024-01-30T06:30:09;7.38;;;5.15;;
40635;SDS011;26642;55.766;37.828;2024-01-30T06:32:36;6.57;;;5.10;;
40635;SDS011;26642;55.766;37.828;2024-01-30T06:35:02;12.32;;;4.80;;
40635;SDS011;26642;55.766;37.828;2024-01-30T06:37:28;16.23;;;5.35;;
40635;SDS011;26642;55.766;37.828;2024-01-30T06:39:54;11.63;;;5.28;;
40635;SDS011;26642;55.766;37.828;2024-01-30T06:42:20;8.05;;;4.68;;
40635;SDS011;26642;55.766;37.828;2024-01-30T06:44:46;7.30;;;4.93;;
40635;SDS011;26642;55.766;37.828;2024-01-30T06:47:12;11.27;;;4.82;;
40635;SDS011;26642;55.766;37.828;2024-01-30T06:49:38;8.65;;;5.13;;
40635;SDS011;26642;55.766;37.828;2024-01-30T06:52:07;8.63;;;4.80;;
40635;SDS011;26642;55.766;37.828;2024-01-30T06:54:33;6.13;;;4.85;;
40635;SDS011;26642;55.766;37.828;2024-01-30T06:57:00;9.68;;;4.75;;
40635;SDS011;26642;55.766;37.828;2024-01-30T06:59:26;7.90;;;4.93;;
40635;SDS011;26642;55.766;37.828;2024-01-30T07:01:52;5.60;;;4.55;;
40635;SDS011;26642;55.766;37.828;2024-01-30T07:04:18;8.13;;;5.00;;
40635;SDS011;26642;55.766;37.828;2024-01-30T07:06:44;7.85;;;5.07;;
40635;SDS011;26642;55.766;37.828;2024-01-30T07:09:10;6.85;;;4.75;;
40635;SDS011;26642;55.766;37.828;2024-01-30T07:11:37;5.93;;;5.00;;
40635;SDS011;26642;55.766;37.828;2024-01-30T07:14:03;8.63;;;4.57;;
40635;SDS011;26642;55.766;37.828;2024-01-30T07:16:30;7.18;;;4.72;;
40635;SDS011;26642;55.766;37.828;2024-01-30T07:18:56;6.40;;;4.75;;
40635;SDS011;26642;55.766;37.828;2024-01-30T07:21:22;8.45;;;4.80;;
40635;SDS011;26642;55.766;37.828;2024-01-30T07:23:53;7.78;;;5.22;;
40635;SDS011;26642;55.766;37.828;2024-01-30T07:26:20;8.02;;;4.88;;
40635;SDS011;26642;55.766;37.828;2024-01-30T07:28:46;10.32;;;5.07;;
40635;SDS011;26642;55.766;37.828;2024-01-30T07:31:12;6.22;;;4.63;;
40635;SDS011;26642;55.766;37.828;2024-01-30T07:33:38;7.82;;;4.50;;
40635;SDS011;26642;55.766;37.828;2024-01-30T07:36:04;6.97;;;4.45;;
40635;SDS011;26642;55.766;37.828;2024-01-30T07:38:34;8.63;;;4.65;;
40635;SDS011;26642;55.766;37.828;2024-01-30T07:41:00;5.82;;;4.75;;
40635;SDS011;26642;55.766;37.828;2024-01-30T07:43:26;7.47;;;4.85;;
40635;SDS011;26642;55.766;37.828;2024-01-30T07:45:52;6.90;;;4.68;;
40635;SDS011;26642;55.766;37.828;2024-01-30T07:48:18;6.85;;;4.70;;
40635;SDS011;26642;55.766;37.828;2024-01-30T07:50:44;9.95;;;5.45;;
40635;SDS011;26642;55.766;37.828;2024-01-30T07:53:10;7.63;;;4.63;;
40635;SDS011;26642;55.766;37.828;2024-01-30T07:58:38;7.60;;;5.18;;
40635;SDS011;26642;55.766;37.828;2024-01-30T08:01:04;6.35;;;4.85;;
40635;SDS011;26642;55.766;37.828;2024-01-30T08:03:30;7.90;;;5.13;;
40635;SDS011;26642;55.766;37.828;2024-01-30T08:05:56;6.65;;;4.78;;
40635;SDS011;26642;55.766;37.828;2024-01-30T08:08:22;8.90;;;4.78;;
40635;SDS011;26642;55.766;37.828;2024-01-30T08:10:48;6.90;;;5.07;;
40635;SDS011;26642;55.766;37.828;2024-01-30T08:13:15;6.95;;;5.20;;
40635;SDS011;26642;55.766;37.828;2024-01-30T08:15:41;6.60;;;5.35;;
40635;SDS011;26642;55.766;37.828;2024-01-30T08:18:25;9.15;;;5.30;;
40635;SDS011;26642;55.766;37.828;2024-01-30T08:20:52;9.50;;;4.95;;
40635;SDS011;26642;55.766;37.828;2024-01-30T08:23:18;8.63;;;5.55;;
40635;SDS011;26642;55.766;37.828;2024-01-30T08:25:44;7.13;;;5.43;;
40635;SDS011;26642;55.766;37.828;2024-01-30T08:28:10;8.75;;;5.22;;
40635;SDS011;26642;55.766;37.828;2024-01-30T08:30:36;8.38;;;5.20;;
40635;SDS011;26642;55.766;37.828;2024-01-30T08:33:04;6.80;;;5.25;;
40635;SDS011;26642;55.766;37.828;2024-01-30T08:35:30;6.95;;;5.22;;
40635;SDS011;26642;55.766;37.828;2024-01-30T08:37:58;6.57;;;5.00;;
40635;SDS011;26642;55.766;37.828;2024-01-30T08:40:25;7.50;;;5.13;;
40635;SDS011;26642;55.766;37.828;2024-01-30T08:42:51;7.32;;;5.10;;
40635;SDS011;26642;55.766;37.828;2024-01-30T08:45:17;6.28;;;5.15;;
40635;SDS011;26642;55.766;37.828;2024-01-30T08:47:43;8.02;;;5.60;;
40635;SDS011;26642;55.766;37.828;2024-01-30T08:50:09;6.55;;;4.90;;
40635;SDS011;26642;55.766;37.828;2024-01-30T08:52:35;6.65;;;4.90;;
40635;SDS011;26642;55.766;37.828;2024-01-30T08:55:01;7.60;;;5.40;;
40635;SDS011;26642;55.766;37.828;2024-01-30T08:57:27;7.18;;;5.63;;
40635;SDS011;26642;55.766;37.828;2024-01-30T08:59:54;7.40;;;5.88;;
40635;SDS011;26642;55.766;37.828;2024-01-30T09:02:20;6.75;;;5.13;;
40635;SDS011;26642;55.766;37.828;2024-01-30T09:04:46;8.40;;;5.65;;
40635;SDS011;26642;55.766;37.828;2024-01-30T09:07:12;8.20;;;5.32;;
40635;SDS011;26642;55.766;37.828;2024-01-30T09:09:39;6.97;;;4.70;;
40635;SDS011;26642;55.766;37.828;2024-01-30T09:12:06;7.10;;;4.95;;
40635;SDS011;26642;55.766;37.828;2024-01-30T09:14:37;7.10;;;4.88;;
40635;SDS011;26642;55.766;37.828;2024-01-30T09:17:04;7.35;;;5.22;;
40635;SDS011;26642;55.766;37.828;2024-01-30T09:19:30;6.50;;;5.18;;
40635;SDS011;26642;55.766;37.828;2024-01-30T09:21:56;7.38;;;4.70;;
40635;SDS011;26642;55.766;37.828;2024-01-30T09:24:22;7.10;;;5.20;;
40635;SDS011;26642;55.766;37.828;2024-01-30T09:26:48;7.72;;;5.25;;
40635;SDS011;26642;55.766;37.828;2024-01-30T09:29:19;7.82;;;5.63;;
40635;SDS011;26642;55.766;37.828;2024-01-30T09:31:45;7.10;;;5.00;;
40635;SDS011;26642;55.766;37.828;2024-01-30T09:34:12;7.57;;;5.35;;
40635;SDS011;26642;55.766;37.828;2024-01-30T09:36:38;6.70;;;5.32;;
40635;SDS011;26642;55.766;37.828;2024-01-30T09:39:05;7.00;;;5.28;;
40635;SDS011;26642;55.766;37.828;2024-01-30T09:41:32;8.48;;;5.00;;
40635;SDS011;26642;55.766;37.828;2024-01-30T09:44:00;7.95;;;5.40;;
40635;SDS011;26642;55.766;37.828;2024-01-30T09:46:27;7.50;;;5.35;;
40635;SDS011;26642;55.766;37.828;2024-01-30T09:48:55;7.13;;;4.97;;
40635;SDS011;26642;55.766;37.828;2024-01-30T09:51:23;6.72;;;5.28;;
40635;SDS011;26642;55.766;37.828;2024-01-30T09:53:50;9.82;;;5.75;;
40635;SDS011;26642;55.766;37.828;2024-01-30T09:56:17;7.25;;;4.85;;
40635;SDS011;26642;55.766;37.828;2024-01-30T09:58:43;6.45;;;5.00;;
40635;SDS011;26642;55.766;37.828;2024-01-30T10:01:09;7.72;;;5.50;;
40635;SDS011;26642;55.766;37.828;2024-01-30T10:03:36;7.00;;;5.10;;
40635;SDS011;26642;55.766;37.828;2024-01-30T10:06:02;8.20;;;5.45;;
40635;SDS011;26642;55.766;37.828;2024-01-30T10:08:28;7.45;;;5.70;;
40635;SDS011;26642;55.766;37.828;2024-01-30T10:10:55;6.30;;;5.30;;
40635;SDS011;26642;55.766;37.828;2024-01-30T10:13:21;9.23;;;5.90;;
40635;SDS011;26642;55.766;37.828;2024-01-30T10:15:47;6.95;;;5.30;;
40635;SDS011;26642;55.766;37.828;2024-01-30T10:18:13;8.30;;;5.47;;
40635;SDS011;26642;55.766;37.828;2024-01-30T10:20:39;7.57;;;5.13;;
40635;SDS011;26642;55.766;37.828;2024-01-30T10:23:05;7.88;;;5.65;;
40635;SDS011;26642;55.766;37.828;2024-01-30T10:25:31;6.90;;;5.35;;
40635;SDS011;26642;55.766;37.828;2024-01-30T10:27:58;7.50;;;5.53;;
40635;SDS011;26642;55.766;37.828;2024-01-30T10:30:24;9.52;;;5.40;;
40635;SDS011;26642;55.766;37.828;2024-01-30T10:32:50;7.78;;;5.05;;
40635;SDS011;26642;55.766;37.828;2024-01-30T10:35:17;7.50;;;5.25;;
40635;SDS011;26642;55.766;37.828;2024-01-30T10:37:43;6.95;;;5.63;;
40635;SDS011;26642;55.766;37.828;2024-01-30T10:40:09;7.15;;;5.47;;
40635;SDS011;26642;55.766;37.828;2024-01-30T10:42:40;8.10;;;5.88;;
40635;SDS011;26642;55.766;37.828;2024-01-30T10:45:09;7.80;;;5.53;;
40635;SDS011;26642;55.766;37.828;2024-01-30T10:47:43;7.95;;;5.75;;
40635;SDS011;26642;55.766;37.828;2024-01-30T10:50:14;6.75;;;5.45;;
40635;SDS011;26642;55.766;37.828;2024-01-30T10:52:42;10.02;;;6.35;;
40635;SDS011;26642;55.766;37.828;2024-01-30T10:55:09;8.07;;;5.65;;
40635;SDS011;26642;55.766;37.828;2024-01-30T10:57:35;7.75;;;5.88;;
40635;SDS011;26642;55.766;37.828;2024-01-30T11:00:03;7.47;;;5.28;;
40635;SDS011;26642;55.766;37.828;2024-01-30T11:02:36;7.28;;;5.50;;
40635;SDS011;26642;55.766;37.828;2024-01-30T11:05:06;7.45;;;5.30;;
40635;SDS011;26642;55.766;37.828;2024-01-30T11:07:33;9.43;;;6.38;;
40635;SDS011;26642;55.766;37.828;2024-01-30T11:12:28;8.00;;;5.57;;
40635;SDS011;26642;55.766;37.828;2024-01-30T11:15:11;7.20;;;5.47;;
40635;SDS011;26642;55.766;37.828;2024-01-30T11:18:00;7.78;;;5.57;;
40635;SDS011;26642;55.766;37.828;2024-01-30T11:20:26;8.13;;;5.60;;
40635;SDS011;26642;55.766;37.828;2024-01-30T11:22:56;7.45;;;5.32;;
40635;SDS011;26642;55.766;37.828;2024-01-30T11:25:23;7.90;;;5.63;;
40635;SDS011;26642;55.766;37.828;2024-01-30T11:27:54;8.60;;;5.88;;
40635;SDS011;26642;55.766;37.828;2024-01-30T11:30:30;7.63;;;5.78;;
40635;SDS011;26642;55.766;37.828;2024-01-30T11:33:00;8.45;;;5.55;;
40635;SDS011;26642;55.766;37.828;2024-01-30T11:35:45;8.38;;;5.57;;
40635;SDS011;26642;55.766;37.828;2024-01-30T11:38:13;9.13;;;5.70;;
40635;SDS011;26642;55.766;37.828;2024-01-30T11:40:40;8.27;;;5.70;;
40635;SDS011;26642;55.766;37.828;2024-01-30T11:43:07;6.65;;;5.57;;
40635;SDS011;26642;55.766;37.828;2024-01-30T11:45:34;8.35;;;5.63;;
40635;SDS011;26642;55.766;37.828;2024-01-30T11:48:02;7.03;;;5.70;;
40635;SDS011;26642;55.766;37.828;2024-01-30T11:50:32;8.18;;;5.60;;
40635;SDS011;26642;55.766;37.828;2024-01-30T11:52:59;7.35;;;5.40;;
40635;SDS011;26642;55.766;37.828;2024-01-30T11:55:29;8.52;;;5.82;;
40635;SDS011;26642;55.766;37.828;2024-01-30T11:57:58;9.98;;;5.88;;
40635;SDS011;26642;55.766;37.828;2024-01-30T12:00:24;7.70;;;5.88;;
40635;SDS011;26642;55.766;37.828;2024-01-30T12:02:52;9.85;;;6.05;;
40635;SDS011;26642;55.766;37.828;2024-01-30T12:05:23;9.15;;;5.68;;
40635;SDS011;26642;55.766;37.828;2024-01-30T12:07:49;9.43;;;6.20;;
40635;SDS011;26642;55.766;37.828;2024-01-30T12:10:15;7.13;;;5.30;;
40635;SDS011;26642;55.766;37.828;2024-01-30T12:12:44;6.80;;;5.80;;
40635;SDS011;26642;55.766;37.828;2024-01-30T12:15:12;9.95;;;6.60;;
40635;SDS011;26642;55.766;37.828;2024-01-30T12:17:39;10.10;;;5.72;;
40635;SDS011;26642;55.766;37.828;2024-01-30T12:20:06;10.68;;;5.82;;
40635;SDS011;26642;55.766;37.828;2024-01-30T12:22:37;7.95;;;5.38;;
40635;SDS011;26642;55.766;37.828;2024-01-30T12:25:07;7.75;;;6.13;;
40635;SDS011;26642;55.766;37.828;2024-01-30T12:27:34;9.20;;;6.50;;
40635;SDS011;26642;55.766;37.828;2024-01-30T12:30:00;7.82;;;5.78;;
40635;SDS011;26642;55.766;37.828;2024-01-30T12:32:26;9.43;;;6.40;;
40635;SDS011;26642;55.766;37.828;2024-01-30T12:34:56;9.38;;;6.25;;
40635;SDS011;26642;55.766;37.828;2024-01-30T12:37:22;10.20;;;5.78;;
40635;SDS011;26642;55.766;37.828;2024-01-30T12:39:51;8.15;;;5.80;;
40635;SDS011;26642;55.766;37.828;2024-01-30T12:42:19;8.23;;;6.13;;
40635;SDS011;26642;55.766;37.828;2024-01-30T12:44:47;6.50;;;5.47;;
40635;SDS011;26642;55.766;37.828;2024-01-30T12:47:14;9.90;;;6.07;;
40635;SDS011;26642;55.766;37.828;2024-01-30T12:49:42;8.45;;;6.15;;
40635;SDS011;26642;55.766;37.828;2024-01-30T12:52:10;9.52;;;6.13;;
40635;SDS011;26642;55.766;37.828;2024-01-30T12:54:37;7.47;;;5.75;;
40635;SDS011;26642;55.766;37.828;2024-01-30T12:57:04;10.73;;;6.25;;
40635;SDS011;26642;55.766;37.828;2024-01-30T12:59:30;11.65;;;6.65;;
40635;SDS011;26642;55.766;37.828;2024-01-30T13:01:56;8.02;;;6.05;;
40635;SDS011;26642;55.766;37.828;2024-01-30T13:04:24;13.35;;;6.50;;
40635;SDS011;26642;55.766;37.828;2024-01-30T13:06:50;6.97;;;5.75;;
40635;SDS011;26642;55.766;37.828;2024-01-30T13:09:16;9.45;;;6.50;;
40635;SDS011;26642;55.766;37.828;2024-01-30T13:11:42;7.63;;;5.50;;
40635;SDS011;26642;55.766;37.828;2024-01-30T13:14:08;9.18;;;6.10;;
40635;SDS011;26642;55.766;37.828;2024-01-30T13:16:34;8.85;;;6.28;;
40635;SDS011;26642;55.766;37.828;2024-01-30T13:19:00;8.77;;;6.28;;
40635;SDS011;26642;55.766;37.828;2024-01-30T13:21:27;9.98;;;6.35;;
40635;SDS011;26642;55.766;37.828;2024-01-30T13:23:53;8.55;;;6.53;;
40635;SDS011;26642;55.766;37.828;2024-01-30T13:26:20;9.02;;;6.43;;
40635;SDS011;26642;55.766;37.828;2024-01-30T13:28:46;9.68;;;6.32;;
40635;SDS011;26642;55.766;37.828;2024-01-30T13:31:13;8.05;;;6.18;;
40635;SDS011;26642;55.766;37.828;2024-01-30T13:33:40;8.82;;;6.15;;
40635;SDS011;26642;55.766;37.828;2024-01-30T13:36:07;9.10;;;6.20;;
40635;SDS011;26642;55.766;37.828;2024-01-30T13:38:34;11.90;;;6.82;;
40635;SDS011;26642;55.766;37.828;2024-01-30T13:41:00;11.35;;;6.75;;
40635;SDS011;26642;55.766;37.828;2024-01-30T13:43:26;9.43;;;6.53;;
40635;SDS011;26642;55.766;37.828;2024-01-30T13:45:52;9.45;;;6.13;;
40635;SDS011;26642;55.766;37.828;2024-01-30T13:48:18;9.50;;;6.38;;
40635;SDS011;26642;55.766;37.828;2024-01-30T13:50:44;9.48;;;6.70;;
40635;SDS011;26642;55.766;37.828;2024-01-30T13:53:11;10.27;;;6.90;;
40635;SDS011;26642;55.766;37.828;2024-01-30T13:55:37;9.50;;;6.72;;
40635;SDS011;26642;55.766;37.828;2024-01-30T13:58:04;8.95;;;6.47;;
40635;SDS011;26642;55.766;37.828;2024-01-30T14:00:31;9.13;;;6.50;;
40635;SDS011;26642;55.766;37.828;2024-01-30T14:02:58;11.40;;;6.63;;
40635;SDS011;26642;55.766;37.828;2024-01-30T14:05:25;10.13;;;6.63;;
40635;SDS011;26642;55.766;37.828;2024-01-30T14:07:53;11.43;;;6.28;;
40635;SDS011;26642;55.766;37.828;2024-01-30T14:10:19;9.50;;;6.78;;
40635;SDS011;26642;55.766;37.828;2024-01-30T14:12:46;9.90;;;6.85;;
40635;SDS011;26642;55.766;37.828;2024-01-30T14:15:13;12.57;;;7.20;;
40635;SDS011;26642;55.766;37.828;2024-01-30T14:17:47;8.77;;;6.90;;
40635;SDS011;26642;55.766;37.828;2024-01-30T14:20:15;11.82;;;6.55;;
40635;SDS011;26642;55.766;37.828;2024-01-30T14:22:44;9.38;;;6.53;;
40635;SDS011;26642;55.766;37.828;2024-01-30T14:25:10;9.02;;;6.85;;
40635;SDS011;26642;55.766;37.828;2024-01-30T14:27:37;10.05;;;6.95;;
40635;SDS011;26642;55.766;37.828;2024-01-30T14:30:03;8.63;;;6.22;;
40635;SDS011;26642;55.766;37.828;2024-01-30T14:32:31;9.18;;;6.82;;
40635;SDS011;26642;55.766;37.828;2024-01-30T14:34:58;10.23;;;7.10;;
40635;SDS011;26642;55.766;37.828;2024-01-30T14:37:24;12.20;;;6.50;;
40635;SDS011;26642;55.766;37.828;2024-01-30T14:39:50;13.55;;;6.93;;